sensor_id;sensor_type;location;lat;lon;timestamp;P1;durP1;ratioP1;P2;durP2;ratioP2
62790;SDS011;48830;53.426;10.300;2023-04-24T00:00:15;8.65;;;4.78;;
62790;SDS011;48830;53.426;10.300;2023-04-24T00:02:42;8.50;;;5.18;;
62790;SDS011;48830;53.426;10.300;2023-04-24T00:05:13;8.25;;;4.93;;
62790;SDS011;48830;53.426;10.300;2023-04-24T00:07:40;6.95;;;5.10;;
62790;SDS011;48830;53.426;10.300;2023-04-24T00:10:06;7.60;;;5.15;;
62790;SDS011;48830;53.426;10.300;2023-04-24T00:12:32;7.82;;;5.10;;
62790;SDS011;48830;53.426;10.300;2023-04-24T00:14:58;7.95;;;5.25;;
62790;SDS011;48830;53.426;10.300;2023-04-24T00:17:23;7.57;;;5.18;;
62790;SDS011;48830;53.426;10.300;2023-04-24T00:19:49;9.32;;;5.20;;
62790;SDS011;48830;53.426;10.300;2023-04-24T00:22:26;8.60;;;5.32;;
62790;SDS011;48830;53.426;10.300;2023-04-24T00:24:52;8.18;;;5.10;;
62790;SDS011;48830;53.426;10.300;2023-04-24T00:27:18;9.85;;;5.13;;
62790;SDS011;48830;53.426;10.300;2023-04-24T00:29:43;7.50;;;4.88;;
62790;SDS011;48830;53.426;10.300;2023-04-24T00:32:09;7.70;;;5.00;;
62790;SDS011;48830;53.426;10.300;2023-04-24T00:34:35;6.80;;;4.95;;
62790;SDS011;48830;53.426;10.300;2023-04-24T00:37:00;7.15;;;4.45;;
62790;SDS011;48830;53.426;10.300;2023-04-24T00:39:26;6.93;;;4.78;;
62790;SDS011;48830;53.426;10.300;2023-04-24T00:41:51;7.57;;;4.93;;
62790;SDS011;48830;53.426;10.300;2023-04-24T00:44:18;7.70;;;4.85;;
62790;SDS011;48830;53.426;10.300;2023-04-24T00:46:43;7.50;;;4.90;;
62790;SDS011;48830;53.426;10.300;2023-04-24T00:49:09;6.05;;;4.47;;
62790;SDS011;48830;53.426;10.300;2023-04-24T00:51:35;7.22;;;4.88;;
62790;SDS011;48830;53.426;10.300;2023-04-24T00:54:01;8.65;;;4.57;;
62790;SDS011;48830;53.426;10.300;2023-04-24T00:56:27;6.43;;;4.50;;
62790;SDS011;48830;53.426;10.300;2023-04-24T00:58:53;7.22;;;4.35;;
62790;SDS011;48830;53.426;10.300;2023-04-24T01:01:19;7.43;;;4.70;;
62790;SDS011;48830;53.426;10.300;2023-04-24T01:03:46;6.25;;;4.45;;
62790;SDS011;48830;53.426;10.300;2023-04-24T01:06:12;6.93;;;4.55;;
62790;SDS011;48830;53.426;10.300;2023-04-24T01:08:39;6.40;;;4.30;;
62790;SDS011;48830;53.426;10.300;2023-04-24T01:11:05;6.95;;;4.50;;
62790;SDS011;48830;53.426;10.300;2023-04-24T01:13:32;6.00;;;4.28;;
62790;SDS011;48830;53.426;10.300;2023-04-24T01:15:58;6.68;;;4.45;;
62790;SDS011;48830;53.426;10.300;2023-04-24T01:18:23;8.45;;;4.70;;
62790;SDS011;48830;53.426;10.300;2023-04-24T01:20:50;6.38;;;4.53;;
62790;SDS011;48830;53.426;10.300;2023-04-24T01:23:18;6.47;;;4.38;;
62790;SDS011;48830;53.426;10.300;2023-04-24T01:25:44;7.03;;;4.22;;
62790;SDS011;48830;53.426;10.300;2023-04-24T01:28:09;5.50;;;4.07;;
62790;SDS011;48830;53.426;10.300;2023-04-24T01:30:37;7.30;;;3.90;;
62790;SDS011;48830;53.426;10.300;2023-04-24T01:33:02;5.40;;;3.67;;
62790;SDS011;48830;53.426;10.300;2023-04-24T01:35:28;5.90;;;4.00;;
62790;SDS011;48830;53.426;10.300;2023-04-24T01:37:54;6.47;;;4.00;;
62790;SDS011;48830;53.426;10.300;2023-04-24T01:40:19;7.20;;;3.78;;
62790;SDS011;48830;53.426;10.300;2023-04-24T01:42:45;6.68;;;3.50;;
62790;SDS011;48830;53.426;10.300;2023-04-24T01:45:11;7.03;;;3.75;;
62790;SDS011;48830;53.426;10.300;2023-04-24T01:47:38;5.60;;;3.08;;
62790;SDS011;48830;53.426;10.300;2023-04-24T01:50:04;4.97;;;3.40;;
62790;SDS011;48830;53.426;10.300;2023-04-24T01:52:30;5.88;;;3.20;;
62790;SDS011;48830;53.426;10.300;2023-04-24T01:55:04;6.32;;;3.13;;
62790;SDS011;48830;53.426;10.300;2023-04-24T01:57:31;4.82;;;3.13;;
62790;SDS011;48830;53.426;10.300;2023-04-24T01:59:57;5.85;;;3.38;;
62790;SDS011;48830;53.426;10.300;2023-04-24T02:02:22;4.20;;;2.88;;
62790;SDS011;48830;53.426;10.300;2023-04-24T02:04:53;4.22;;;3.03;;
62790;SDS011;48830;53.426;10.300;2023-04-24T02:07:19;4.57;;;2.95;;
62790;SDS011;48830;53.426;10.300;2023-04-24T02:09:45;5.15;;;3.00;;
62790;SDS011;48830;53.426;10.300;2023-04-24T02:12:10;5.03;;;3.00;;
62790;SDS011;48830;53.426;10.300;2023-04-24T02:14:36;5.25;;;2.88;;
62790;SDS011;48830;53.426;10.300;2023-04-24T02:17:02;4.55;;;2.60;;
62790;SDS011;48830;53.426;10.300;2023-04-24T02:19:28;3.90;;;2.55;;
62790;SDS011;48830;53.426;10.300;2023-04-24T02:21:53;5.28;;;3.13;;
62790;SDS011;48830;53.426;10.300;2023-04-24T02:24:18;4.32;;;2.55;;
62790;SDS011;48830;53.426;10.300;2023-04-24T02:26:44;4.38;;;2.90;;
62790;SDS011;48830;53.426;10.300;2023-04-24T02:29:10;5.22;;;2.85;;
62790;SDS011;48830;53.426;10.300;2023-04-24T02:31:35;5.43;;;2.60;;
62790;SDS011;48830;53.426;10.300;2023-04-24T02:34:01;5.25;;;3.05;;
62790;SDS011;48830;53.426;10.300;2023-04-24T02:36:26;5.65;;;2.83;;
62790;SDS011;48830;53.426;10.300;2023-04-24T02:38:51;4.85;;;2.90;;
62790;SDS011;48830;53.426;10.300;2023-04-24T02:41:17;5.38;;;2.20;;
62790;SDS011;48830;53.426;10.300;2023-04-24T02:43:42;3.58;;;2.33;;
62790;SDS011;48830;53.426;10.300;2023-04-24T02:46:08;5.35;;;2.65;;
62790;SDS011;48830;53.426;10.300;2023-04-24T02:48:33;3.08;;;2.17;;
62790;SDS011;48830;53.426;10.300;2023-04-24T02:50:59;4.68;;;2.15;;
62790;SDS011;48830;53.426;10.300;2023-04-24T02:53:25;4.18;;;2.30;;
62790;SDS011;48830;53.426;10.300;2023-04-24T02:55:50;3.88;;;2.25;;
62790;SDS011;48830;53.426;10.300;2023-04-24T02:58:16;3.92;;;2.05;;
62790;SDS011;48830;53.426;10.300;2023-04-24T03:00:42;3.90;;;1.95;;
62790;SDS011;48830;53.426;10.300;2023-04-24T03:03:08;4.32;;;2.10;;
62790;SDS011;48830;53.426;10.300;2023-04-24T03:05:34;2.65;;;1.98;;
62790;SDS011;48830;53.426;10.300;2023-04-24T03:08:00;3.88;;;2.20;;
62790;SDS011;48830;53.426;10.300;2023-04-24T03:10:25;3.20;;;2.05;;
62790;SDS011;48830;53.426;10.300;2023-04-24T03:12:51;3.53;;;2.30;;
62790;SDS011;48830;53.426;10.300;2023-04-24T03:15:17;2.38;;;2.00;;
62790;SDS011;48830;53.426;10.300;2023-04-24T03:17:43;3.17;;;1.95;;
62790;SDS011;48830;53.426;10.300;2023-04-24T03:20:08;3.25;;;1.95;;
62790;SDS011;48830;53.426;10.300;2023-04-24T03:22:34;2.38;;;2.00;;
62790;SDS011;48830;53.426;10.300;2023-04-24T03:25:02;4.50;;;2.42;;
62790;SDS011;48830;53.426;10.300;2023-04-24T03:27:29;6.50;;;2.80;;
62790;SDS011;48830;53.426;10.300;2023-04-24T03:29:59;2.75;;;2.00;;
62790;SDS011;48830;53.426;10.300;2023-04-24T03:32:46;4.35;;;2.40;;
62790;SDS011;48830;53.426;10.300;2023-04-24T03:35:15;3.20;;;2.30;;
62790;SDS011;48830;53.426;10.300;2023-04-24T03:37:40;3.38;;;2.30;;
62790;SDS011;48830;53.426;10.300;2023-04-24T03:40:26;3.75;;;2.28;;
62790;SDS011;48830;53.426;10.300;2023-04-24T03:42:53;2.97;;;2.17;;
62790;SDS011;48830;53.426;10.300;2023-04-24T03:45:19;3.38;;;2.20;;
62790;SDS011;48830;53.426;10.300;2023-04-24T03:47:47;2.90;;;1.92;;
62790;SDS011;48830;53.426;10.300;2023-04-24T03:50:13;3.08;;;2.20;;
62790;SDS011;48830;53.426;10.300;2023-04-24T03:52:40;3.40;;;1.80;;
62790;SDS011;48830;53.426;10.300;2023-04-24T03:55:07;3.70;;;1.90;;
62790;SDS011;48830;53.426;10.300;2023-04-24T03:57:39;3.47;;;2.30;;
62790;SDS011;48830;53.426;10.300;2023-04-24T04:00:12;2.78;;;1.83;;
62790;SDS011;48830;53.426;10.300;2023-04-24T04:02:45;2.63;;;1.70;;
62790;SDS011;48830;53.426;10.300;2023-04-24T04:05:10;3.42;;;2.10;;
62790;SDS011;48830;53.426;10.300;2023-04-24T04:07:36;5.82;;;2.20;;
62790;SDS011;48830;53.426;10.300;2023-04-24T04:10:01;2.85;;;2.00;;
62790;SDS011;48830;53.426;10.300;2023-04-24T04:12:27;4.10;;;2.35;;
62790;SDS011;48830;53.426;10.300;2023-04-24T04:14:52;2.97;;;1.90;;
62790;SDS011;48830;53.426;10.300;2023-04-24T04:17:18;2.47;;;1.80;;
62790;SDS011;48830;53.426;10.300;2023-04-24T04:19:44;3.00;;;1.80;;
62790;SDS011;48830;53.426;10.300;2023-04-24T04:22:09;2.90;;;2.05;;
62790;SDS011;48830;53.426;10.300;2023-04-24T04:24:40;3.28;;;2.30;;
62790;SDS011;48830;53.426;10.300;2023-04-24T04:27:07;3.28;;;2.15;;
62790;SDS011;48830;53.426;10.300;2023-04-24T04:29:41;4.60;;;2.72;;
62790;SDS011;48830;53.426;10.300;2023-04-24T04:32:09;5.38;;;2.20;;
62790;SDS011;48830;53.426;10.300;2023-04-24T04:34:35;3.65;;;2.60;;
62790;SDS011;48830;53.426;10.300;2023-04-24T04:37:03;4.95;;;3.20;;
62790;SDS011;48830;53.426;10.300;2023-04-24T04:39:51;3.90;;;2.70;;
62790;SDS011;48830;53.426;10.300;2023-04-24T04:42:21;2.72;;;2.00;;
62790;SDS011;48830;53.426;10.300;2023-04-24T04:44:49;3.00;;;2.03;;
62790;SDS011;48830;53.426;10.300;2023-04-24T04:47:18;3.25;;;2.00;;
62790;SDS011;48830;53.426;10.300;2023-04-24T04:49:50;3.00;;;2.30;;
62790;SDS011;48830;53.426;10.300;2023-04-24T04:52:21;2.88;;;2.17;;
62790;SDS011;48830;53.426;10.300;2023-04-24T04:54:54;2.53;;;2.00;;
62790;SDS011;48830;53.426;10.300;2023-04-24T04:57:22;2.65;;;1.98;;
62790;SDS011;48830;53.426;10.300;2023-04-24T04:59:48;2.33;;;1.60;;
62790;SDS011;48830;53.426;10.300;2023-04-24T05:02:24;2.10;;;1.70;;
62790;SDS011;48830;53.426;10.300;2023-04-24T05:04:49;2.50;;;1.77;;
62790;SDS011;48830;53.426;10.300;2023-04-24T05:07:15;2.10;;;1.73;;
62790;SDS011;48830;53.426;10.300;2023-04-24T05:09:46;2.53;;;1.75;;
62790;SDS011;48830;53.426;10.300;2023-04-24T05:12:11;3.33;;;1.60;;
62790;SDS011;48830;53.426;10.300;2023-04-24T05:14:45;1.50;;;1.40;;
62790;SDS011;48830;53.426;10.300;2023-04-24T05:17:11;2.38;;;1.50;;
62790;SDS011;48830;53.426;10.300;2023-04-24T05:19:37;1.77;;;1.50;;
62790;SDS011;48830;53.426;10.300;2023-04-24T05:22:04;3.08;;;1.65;;
62790;SDS011;48830;53.426;10.300;2023-04-24T05:24:33;2.80;;;1.50;;
62790;SDS011;48830;53.426;10.300;2023-04-24T05:27:09;1.77;;;1.60;;
62790;SDS011;48830;53.426;10.300;2023-04-24T05:29:38;1.50;;;1.40;;
62790;SDS011;48830;53.426;10.300;2023-04-24T05:32:04;1.98;;;1.52;;
62790;SDS011;48830;53.426;10.300;2023-04-24T05:34:30;3.85;;;1.50;;
62790;SDS011;48830;53.426;10.300;2023-04-24T05:36:56;2.10;;;1.58;;
62790;SDS011;48830;53.426;10.300;2023-04-24T05:39:22;1.50;;;1.40;;
62790;SDS011;48830;53.426;10.300;2023-04-24T05:41:47;1.92;;;1.70;;
62790;SDS011;48830;53.426;10.300;2023-04-24T05:44:13;2.22;;;1.58;;
62790;SDS011;48830;53.426;10.300;2023-04-24T05:46:38;3.38;;;1.63;;
62790;SDS011;48830;53.426;10.300;2023-04-24T05:49:03;2.13;;;1.50;;
62790;SDS011;48830;53.426;10.300;2023-04-24T05:51:31;1.88;;;1.50;;
62790;SDS011;48830;53.426;10.300;2023-04-24T05:53:57;4.18;;;1.38;;
62790;SDS011;48830;53.426;10.300;2023-04-24T05:56:24;2.08;;;1.38;;
62790;SDS011;48830;53.426;10.300;2023-04-24T05:58:50;2.28;;;1.30;;
62790;SDS011;48830;53.426;10.300;2023-04-24T06:01:15;2.90;;;1.45;;
62790;SDS011;48830;53.426;10.300;2023-04-24T06:03:44;1.40;;;1.30;;
62790;SDS011;48830;53.426;10.300;2023-04-24T06:06:09;4.25;;;1.70;;
62790;SDS011;48830;53.426;10.300;2023-04-24T06:08:35;2.58;;;1.50;;
62790;SDS011;48830;53.426;10.300;2023-04-24T06:11:01;2.08;;;1.58;;
62790;SDS011;48830;53.426;10.300;2023-04-24T06:13:26;1.92;;;1.42;;
62790;SDS011;48830;53.426;10.300;2023-04-24T06:16:15;2.90;;;1.70;;
62790;SDS011;48830;53.426;10.300;2023-04-24T06:18:46;1.70;;;1.40;;
62790;SDS011;48830;53.426;10.300;2023-04-24T06:21:13;2.60;;;1.40;;
62790;SDS011;48830;53.426;10.300;2023-04-24T06:23:38;2.42;;;1.63;;
62790;SDS011;48830;53.426;10.300;2023-04-24T06:26:04;2.15;;;1.67;;
62790;SDS011;48830;53.426;10.300;2023-04-24T06:28:30;3.55;;;1.75;;
62790;SDS011;48830;53.426;10.300;2023-04-24T06:30:57;3.20;;;1.77;;
62790;SDS011;48830;53.426;10.300;2023-04-24T06:33:22;3.17;;;1.67;;
62790;SDS011;48830;53.426;10.300;2023-04-24T06:35:48;2.58;;;1.42;;
62790;SDS011;48830;53.426;10.300;2023-04-24T06:38:13;1.92;;;1.48;;
62790;SDS011;48830;53.426;10.300;2023-04-24T06:40:39;3.40;;;1.60;;
62790;SDS011;48830;53.426;10.300;2023-04-24T06:43:04;2.90;;;1.80;;
62790;SDS011;48830;53.426;10.300;2023-04-24T06:45:31;1.90;;;1.58;;
62790;SDS011;48830;53.426;10.300;2023-04-24T06:47:56;2.20;;;1.60;;
62790;SDS011;48830;53.426;10.300;2023-04-24T06:50:22;2.58;;;1.70;;
62790;SDS011;48830;53.426;10.300;2023-04-24T06:52:47;2.17;;;1.60;;
62790;SDS011;48830;53.426;10.300;2023-04-24T06:55:13;2.97;;;1.83;;
62790;SDS011;48830;53.426;10.300;2023-04-24T06:57:40;2.67;;;1.88;;
62790;SDS011;48830;53.426;10.300;2023-04-24T07:00:06;3.13;;;1.90;;
62790;SDS011;48830;53.426;10.300;2023-04-24T07:02:32;2.92;;;1.70;;
62790;SDS011;48830;53.426;10.300;2023-04-24T07:04:57;3.35;;;1.80;;
62790;SDS011;48830;53.426;10.300;2023-04-24T07:07:23;2.30;;;1.80;;
62790;SDS011;48830;53.426;10.300;2023-04-24T07:09:48;3.88;;;1.92;;
62790;SDS011;48830;53.426;10.300;2023-04-24T07:12:15;2.50;;;1.65;;
62790;SDS011;48830;53.426;10.300;2023-04-24T07:14:42;2.53;;;1.75;;
62790;SDS011;48830;53.426;10.300;2023-04-24T07:17:07;1.88;;;1.60;;
62790;SDS011;48830;53.426;10.300;2023-04-24T07:19:33;3.65;;;1.80;;
62790;SDS011;48830;53.426;10.300;2023-04-24T07:22:00;2.00;;;1.60;;
62790;SDS011;48830;53.426;10.300;2023-04-24T07:24:26;5.35;;;1.85;;
62790;SDS011;48830;53.426;10.300;2023-04-24T07:26:52;2.42;;;1.70;;
62790;SDS011;48830;53.426;10.300;2023-04-24T07:29:18;2.30;;;1.55;;
62790;SDS011;48830;53.426;10.300;2023-04-24T07:31:44;2.03;;;1.60;;
62790;SDS011;48830;53.426;10.300;2023-04-24T07:34:09;3.10;;;2.03;;
62790;SDS011;48830;53.426;10.300;2023-04-24T07:36:35;3.13;;;1.90;;
62790;SDS011;48830;53.426;10.300;2023-04-24T07:39:03;3.78;;;2.13;;
62790;SDS011;48830;53.426;10.300;2023-04-24T07:41:29;2.65;;;1.85;;
62790;SDS011;48830;53.426;10.300;2023-04-24T07:43:55;2.60;;;1.92;;
62790;SDS011;48830;53.426;10.300;2023-04-24T07:46:20;3.17;;;1.70;;
62790;SDS011;48830;53.426;10.300;2023-04-24T07:48:46;4.18;;;1.70;;
62790;SDS011;48830;53.426;10.300;2023-04-24T07:51:14;4.53;;;1.80;;
62790;SDS011;48830;53.426;10.300;2023-04-24T07:53:40;2.40;;;1.63;;
62790;SDS011;48830;53.426;10.300;2023-04-24T07:56:05;3.67;;;1.60;;
62790;SDS011;48830;53.426;10.300;2023-04-24T07:58:31;2.38;;;1.60;;
62790;SDS011;48830;53.426;10.300;2023-04-24T08:00:56;2.10;;;1.58;;
62790;SDS011;48830;53.426;10.300;2023-04-24T08:03:22;2.33;;;1.67;;
62790;SDS011;48830;53.426;10.300;2023-04-24T08:05:47;3.15;;;2.00;;
62790;SDS011;48830;53.426;10.300;2023-04-24T08:08:13;3.13;;;1.90;;
62790;SDS011;48830;53.426;10.300;2023-04-24T08:10:38;3.35;;;2.10;;
62790;SDS011;48830;53.426;10.300;2023-04-24T08:13:04;2.17;;;1.60;;
62790;SDS011;48830;53.426;10.300;2023-04-24T08:15:30;2.25;;;1.85;;
62790;SDS011;48830;53.426;10.300;2023-04-24T08:17:55;4.55;;;2.03;;
62790;SDS011;48830;53.426;10.300;2023-04-24T08:20:22;3.17;;;2.00;;
62790;SDS011;48830;53.426;10.300;2023-04-24T08:22:47;2.55;;;1.85;;
62790;SDS011;48830;53.426;10.300;2023-04-24T08:25:13;3.83;;;2.00;;
62790;SDS011;48830;53.426;10.300;2023-04-24T08:27:39;3.60;;;2.10;;
62790;SDS011;48830;53.426;10.300;2023-04-24T08:30:05;3.42;;;1.90;;
62790;SDS011;48830;53.426;10.300;2023-04-24T08:32:31;3.72;;;2.33;;
62790;SDS011;48830;53.426;10.300;2023-04-24T08:34:57;4.07;;;2.50;;
62790;SDS011;48830;53.426;10.300;2023-04-24T08:37:24;3.60;;;2.50;;
62790;SDS011;48830;53.426;10.300;2023-04-24T08:39:50;4.25;;;2.20;;
62790;SDS011;48830;53.426;10.300;2023-04-24T08:42:19;5.15;;;2.70;;
62790;SDS011;48830;53.426;10.300;2023-04-24T08:44:46;4.13;;;2.78;;
62790;SDS011;48830;53.426;10.300;2023-04-24T08:47:13;4.10;;;2.83;;
62790;SDS011;48830;53.426;10.300;2023-04-24T08:49:40;3.97;;;2.70;;
62790;SDS011;48830;53.426;10.300;2023-04-24T08:52:05;3.65;;;2.53;;
62790;SDS011;48830;53.426;10.300;2023-04-24T08:54:31;4.47;;;2.83;;
62790;SDS011;48830;53.426;10.300;2023-04-24T08:57:00;6.55;;;3.20;;
62790;SDS011;48830;53.426;10.300;2023-04-24T08:59:26;4.55;;;3.05;;
62790;SDS011;48830;53.426;10.300;2023-04-24T09:01:53;5.13;;;3.30;;
62790;SDS011;48830;53.426;10.300;2023-04-24T09:04:20;4.38;;;3.15;;
62790;SDS011;48830;53.426;10.300;2023-04-24T09:06:49;5.25;;;3.60;;
62790;SDS011;48830;53.426;10.300;2023-04-24T09:09:24;5.43;;;3.63;;
62790;SDS011;48830;53.426;10.300;2023-04-24T09:11:51;7.88;;;4.03;;
62790;SDS011;48830;53.426;10.300;2023-04-24T09:14:19;5.55;;;3.70;;
62790;SDS011;48830;53.426;10.300;2023-04-24T09:16:45;5.45;;;3.90;;
62790;SDS011;48830;53.426;10.300;2023-04-24T09:19:11;6.38;;;4.68;;
62790;SDS011;48830;53.426;10.300;2023-04-24T09:21:37;6.35;;;4.38;;
62790;SDS011;48830;53.426;10.300;2023-04-24T09:24:06;5.68;;;3.90;;
62790;SDS011;48830;53.426;10.300;2023-04-24T09:26:39;5.55;;;3.85;;
62790;SDS011;48830;53.426;10.300;2023-04-24T09:29:04;5.88;;;3.83;;
62790;SDS011;48830;53.426;10.300;2023-04-24T09:31:30;6.10;;;3.70;;
62790;SDS011;48830;53.426;10.300;2023-04-24T09:33:57;6.47;;;4.15;;
62790;SDS011;48830;53.426;10.300;2023-04-24T09:36:26;5.85;;;3.90;;
62790;SDS011;48830;53.426;10.300;2023-04-24T09:38:58;6.63;;;4.25;;
62790;SDS011;48830;53.426;10.300;2023-04-24T09:41:25;6.60;;;4.78;;
62790;SDS011;48830;53.426;10.300;2023-04-24T09:43:51;6.88;;;5.00;;
62790;SDS011;48830;53.426;10.300;2023-04-24T09:46:19;7.47;;;4.97;;
62790;SDS011;48830;53.426;10.300;2023-04-24T09:48:46;7.43;;;4.78;;
62790;SDS011;48830;53.426;10.300;2023-04-24T09:51:11;6.85;;;4.18;;
62790;SDS011;48830;53.426;10.300;2023-04-24T09:53:37;5.72;;;4.15;;
62790;SDS011;48830;53.426;10.300;2023-04-24T09:56:09;8.00;;;4.90;;
62790;SDS011;48830;53.426;10.300;2023-04-24T09:58:35;6.47;;;4.43;;
62790;SDS011;48830;53.426;10.300;2023-04-24T10:01:01;7.88;;;5.07;;
62790;SDS011;48830;53.426;10.300;2023-04-24T10:03:29;6.40;;;4.65;;
62790;SDS011;48830;53.426;10.300;2023-04-24T10:05:59;7.53;;;4.35;;
62790;SDS011;48830;53.426;10.300;2023-04-24T10:08:26;6.03;;;4.45;;
62790;SDS011;48830;53.426;10.300;2023-04-24T10:10:57;7.30;;;4.25;;
62790;SDS011;48830;53.426;10.300;2023-04-24T10:13:24;7.25;;;4.63;;
62790;SDS011;48830;53.426;10.300;2023-04-24T10:15:50;6.68;;;4.53;;
62790;SDS011;48830;53.426;10.300;2023-04-24T10:18:16;6.70;;;4.70;;
62790;SDS011;48830;53.426;10.300;2023-04-24T10:20:42;6.97;;;4.80;;
62790;SDS011;48830;53.426;10.300;2023-04-24T10:23:08;7.13;;;4.90;;
62790;SDS011;48830;53.426;10.300;2023-04-24T10:25:34;7.03;;;5.18;;
62790;SDS011;48830;53.426;10.300;2023-04-24T10:28:02;9.13;;;5.40;;
62790;SDS011;48830;53.426;10.300;2023-04-24T10:30:29;8.48;;;5.53;;
62790;SDS011;48830;53.426;10.300;2023-04-24T10:33:00;8.65;;;5.68;;
62790;SDS011;48830;53.426;10.300;2023-04-24T10:35:26;8.20;;;5.88;;
62790;SDS011;48830;53.426;10.300;2023-04-24T10:37:59;8.32;;;5.82;;
62790;SDS011;48830;53.426;10.300;2023-04-24T10:40:32;10.48;;;5.90;;
62790;SDS011;48830;53.426;10.300;2023-04-24T10:42:59;8.68;;;5.88;;
62790;SDS011;48830;53.426;10.300;2023-04-24T10:45:27;8.50;;;5.70;;
62790;SDS011;48830;53.426;10.300;2023-04-24T10:50:34;10.13;;;6.80;;
62790;SDS011;48830;53.426;10.300;2023-04-24T10:53:20;8.65;;;6.30;;
62790;SDS011;48830;53.426;10.300;2023-04-24T10:55:52;10.25;;;6.80;;
62790;SDS011;48830;53.426;10.300;2023-04-24T10:58:23;9.07;;;6.20;;
62790;SDS011;48830;53.426;10.300;2023-04-24T11:00:56;8.85;;;5.97;;
62790;SDS011;48830;53.426;10.300;2023-04-24T11:05:51;8.25;;;6.03;;
62790;SDS011;48830;53.426;10.300;2023-04-24T11:08:22;8.75;;;5.63;;
62790;SDS011;48830;53.426;10.300;2023-04-24T11:10:55;8.85;;;5.90;;
62790;SDS011;48830;53.426;10.300;2023-04-24T11:13:24;8.10;;;5.68;;
62790;SDS011;48830;53.426;10.300;2023-04-24T11:18:40;7.53;;;5.30;;
62790;SDS011;48830;53.426;10.300;2023-04-24T11:21:15;9.40;;;6.50;;
62790;SDS011;48830;53.426;10.300;2023-04-24T11:23:42;10.45;;;6.32;;
62790;SDS011;48830;53.426;10.300;2023-04-24T11:26:26;9.70;;;6.45;;
62790;SDS011;48830;53.426;10.300;2023-04-24T11:29:05;9.68;;;6.22;;
62790;SDS011;48830;53.426;10.300;2023-04-24T11:34:06;9.63;;;5.45;;
62790;SDS011;48830;53.426;10.300;2023-04-24T11:36:36;6.82;;;4.70;;
62790;SDS011;48830;53.426;10.300;2023-04-24T11:39:02;6.85;;;4.75;;
62790;SDS011;48830;53.426;10.300;2023-04-24T11:41:28;7.47;;;4.55;;
62790;SDS011;48830;53.426;10.300;2023-04-24T11:43:54;7.15;;;4.38;;
62790;SDS011;48830;53.426;10.300;2023-04-24T11:46:21;8.98;;;4.90;;
62790;SDS011;48830;53.426;10.300;2023-04-24T11:48:46;7.03;;;4.00;;
62790;SDS011;48830;53.426;10.300;2023-04-24T11:51:12;6.35;;;4.30;;
62790;SDS011;48830;53.426;10.300;2023-04-24T11:53:38;7.53;;;4.50;;
62790;SDS011;48830;53.426;10.300;2023-04-24T11:56:04;8.13;;;4.45;;
62790;SDS011;48830;53.426;10.300;2023-04-24T11:58:38;6.13;;;4.30;;
62790;SDS011;48830;53.426;10.300;2023-04-24T12:01:04;7.20;;;4.18;;
62790;SDS011;48830;53.426;10.300;2023-04-24T12:03:30;8.43;;;3.90;;
62790;SDS011;48830;53.426;10.300;2023-04-24T12:06:08;5.72;;;3.90;;
62790;SDS011;48830;53.426;10.300;2023-04-24T12:08:35;7.50;;;3.65;;
62790;SDS011;48830;53.426;10.300;2023-04-24T12:11:01;5.60;;;3.60;;
62790;SDS011;48830;53.426;10.300;2023-04-24T12:13:28;5.45;;;3.60;;
62790;SDS011;48830;53.426;10.300;2023-04-24T12:15:53;5.88;;;3.60;;
62790;SDS011;48830;53.426;10.300;2023-04-24T12:18:22;7.10;;;4.22;;
62790;SDS011;48830;53.426;10.300;2023-04-24T12:20:48;6.40;;;4.57;;
62790;SDS011;48830;53.426;10.300;2023-04-24T12:23:14;7.18;;;3.80;;
62790;SDS011;48830;53.426;10.300;2023-04-24T12:25:39;6.60;;;4.22;;
62790;SDS011;48830;53.426;10.300;2023-04-24T12:30:38;7.95;;;4.47;;
62790;SDS011;48830;53.426;10.300;2023-04-24T12:33:05;6.05;;;3.80;;
62790;SDS011;48830;53.426;10.300;2023-04-24T12:35:31;6.10;;;4.15;;
62790;SDS011;48830;53.426;10.300;2023-04-24T12:38:11;6.63;;;3.80;;
62790;SDS011;48830;53.426;10.300;2023-04-24T12:40:38;8.00;;;3.83;;
62790;SDS011;48830;53.426;10.300;2023-04-24T12:43:40;5.95;;;3.50;;
62790;SDS011;48830;53.426;10.300;2023-04-24T12:45:58;5.15;;;3.30;;
62790;SDS011;48830;53.426;10.300;2023-04-24T12:48:24;6.35;;;3.63;;
62790;SDS011;48830;53.426;10.300;2023-04-24T12:50:53;8.25;;;4.20;;
62790;SDS011;48830;53.426;10.300;2023-04-24T12:53:20;7.95;;;3.72;;
62790;SDS011;48830;53.426;10.300;2023-04-24T12:55:45;5.50;;;3.47;;
62790;SDS011;48830;53.426;10.300;2023-04-24T12:58:17;6.40;;;3.72;;
62790;SDS011;48830;53.426;10.300;2023-04-24T13:00:43;6.20;;;4.13;;
62790;SDS011;48830;53.426;10.300;2023-04-24T13:03:11;6.78;;;3.97;;
62790;SDS011;48830;53.426;10.300;2023-04-24T13:05:36;4.93;;;3.67;;
62790;SDS011;48830;53.426;10.300;2023-04-24T13:08:02;6.95;;;4.20;;
62790;SDS011;48830;53.426;10.300;2023-04-24T13:10:27;5.70;;;3.90;;
62790;SDS011;48830;53.426;10.300;2023-04-24T13:12:53;6.65;;;3.50;;
62790;SDS011;48830;53.426;10.300;2023-04-24T13:15:18;5.50;;;3.50;;
62790;SDS011;48830;53.426;10.300;2023-04-24T13:17:44;6.88;;;3.25;;
62790;SDS011;48830;53.426;10.300;2023-04-24T13:20:09;6.70;;;3.33;;
62790;SDS011;48830;53.426;10.300;2023-04-24T13:22:35;5.20;;;3.50;;
62790;SDS011;48830;53.426;10.300;2023-04-24T13:25:01;4.60;;;3.13;;
62790;SDS011;48830;53.426;10.300;2023-04-24T13:27:27;5.03;;;2.78;;
62790;SDS011;48830;53.426;10.300;2023-04-24T13:29:52;4.13;;;2.70;;
62790;SDS011;48830;53.426;10.300;2023-04-24T13:32:18;3.35;;;2.47;;
62790;SDS011;48830;53.426;10.300;2023-04-24T13:34:43;4.70;;;2.42;;
62790;SDS011;48830;53.426;10.300;2023-04-24T13:37:09;3.90;;;2.45;;
62790;SDS011;48830;53.426;10.300;2023-04-24T13:39:34;3.05;;;2.25;;
62790;SDS011;48830;53.426;10.300;2023-04-24T13:42:00;3.28;;;2.45;;
62790;SDS011;48830;53.426;10.300;2023-04-24T13:44:25;3.75;;;2.60;;
62790;SDS011;48830;53.426;10.300;2023-04-24T13:46:53;3.70;;;2.60;;
62790;SDS011;48830;53.426;10.300;2023-04-24T13:49:22;4.72;;;2.63;;
62790;SDS011;48830;53.426;10.300;2023-04-24T13:51:49;4.10;;;2.58;;
62790;SDS011;48830;53.426;10.300;2023-04-24T13:54:15;4.07;;;2.58;;
62790;SDS011;48830;53.426;10.300;2023-04-24T13:56:41;3.78;;;2.50;;
62790;SDS011;48830;53.426;10.300;2023-04-24T13:59:06;4.68;;;2.30;;
62790;SDS011;48830;53.426;10.300;2023-04-24T14:01:32;3.90;;;2.40;;
62790;SDS011;48830;53.426;10.300;2023-04-24T14:03:57;3.67;;;2.60;;
62790;SDS011;48830;53.426;10.300;2023-04-24T14:06:23;5.60;;;2.67;;
62790;SDS011;48830;53.426;10.300;2023-04-24T14:08:48;4.50;;;2.67;;
62790;SDS011;48830;53.426;10.300;2023-04-24T14:11:15;4.35;;;2.58;;
62790;SDS011;48830;53.426;10.300;2023-04-24T14:13:42;4.35;;;2.60;;
62790;SDS011;48830;53.426;10.300;2023-04-24T14:16:08;5.35;;;2.92;;
62790;SDS011;48830;53.426;10.300;2023-04-24T14:18:34;4.82;;;3.00;;
62790;SDS011;48830;53.426;10.300;2023-04-24T14:20:59;3.97;;;2.72;;
62790;SDS011;48830;53.426;10.300;2023-04-24T14:23:26;3.38;;;2.70;;
62790;SDS011;48830;53.426;10.300;2023-04-24T14:25:52;4.78;;;3.03;;
62790;SDS011;48830;53.426;10.300;2023-04-24T14:28:18;4.43;;;3.00;;
62790;SDS011;48830;53.426;10.300;2023-04-24T14:30:45;4.80;;;3.10;;
62790;SDS011;48830;53.426;10.300;2023-04-24T14:33:11;4.82;;;2.90;;
62790;SDS011;48830;53.426;10.300;2023-04-24T14:35:37;4.60;;;2.78;;
62790;SDS011;48830;53.426;10.300;2023-04-24T14:38:03;3.80;;;2.50;;
62790;SDS011;48830;53.426;10.300;2023-04-24T14:40:29;4.90;;;2.58;;
62790;SDS011;48830;53.426;10.300;2023-04-24T14:42:56;3.17;;;2.35;;
62790;SDS011;48830;53.426;10.300;2023-04-24T14:45:23;3.88;;;2.60;;